Tillamook, OR

4:00 PM PDT on October 22, 2014 (GMT -0700)
Tillamook | Change Station
CLOSE
Current Station
Airport
Location: Tillamook,
Elevation: 36 ft
Nearby Weather Stations
Active Advisory: Special Statement Active Notice: Public Information Statement

Elev 36 ft 45.42 °N, 123.81 °W | Updated 5 minutes ago

Rain
Rain
57 °F
Feels Like 57 °F
N
4
Wind Variable Wind from ESE

Today
High -- | Low -- °F
--% Chance of Precip.
Yesterday
High -- | Low -- °F
Precip. -- in
7:40 AM 6:17 PM
Waning Crescent, 1% visible
Pressure 29.70 in
Visibility 5.0 miles
Clouds Scattered Clouds 2800 ft
Mostly Cloudy 3700 ft
Overcast 4600 ft
Dew Point 55 °F
Humidity 94%
Rainfall 1.26 in
Snow Depth 5 in
UV 0 out of 12
Pollen .40 out of 12
Air Quality Not available.
Flu Activity Sporadic
METAR KTMK 222255Z AUTO 12003KT 5SM RA SCT028 BKN037 OVC046 14/13 A2970 RMK AO2 P0008

More Conditions Fewer Conditions

Pressure 29.70 in
Visibility 5.0 miles
Clouds Scattered Clouds 2800 ft
Mostly Cloudy 3700 ft
Overcast 4600 ft
Dew Point 55 °F
Humidity 94%
Rainfall 1.26 in
Snow Depth 5 in
UV 0 out of 12
Pollen .40 out of 12
Air Quality Not available.
Flu Activity Sporadic
METAR KTMK 222255Z AUTO 12003KT 5SM RA SCT028 BKN037 OVC046 14/13 A2970 RMK AO2 P0008

More Conditions Fewer Conditions

10-Day Weather Forecast

Almanac

Astronomy

Oct. 22, 2014 Rise Set
Actual Time 7:40 AM PDT 6:17 PM PDT
Civil Twilight 7:10 AM PDT 6:47 PM PDT
Nautical Twilight 6:35 AM PDT 7:21 PM PDT
Astronomical Twilight 6:01 AM PDT 7:56 PM PDT
Moon 6:24 AM PDT 5:49 PM PDT
Length of Visible Light 11h 37m
Length of Day
10h 36m
Tomorrow will be 2m 59s shorter.
Waning Crescent, 1% of the Moon is Illuminated
Today
Waning Crescent
Oct 23
New
Oct 30
First Quarter
Nov 6
Full
Nov 14
Last Quarter

Today's Extremes

State Highs State Lows

Community

WunderPhotos

Upload Photos

1,764,071 photos uploaded!

WunderBlogs® & News

Nearby

Snow Depth

Station Depth Elevation
Saddle Mountain 5 in 3250 ft
Seine Creek 0 in 2000 ft
North Fork 0 in 3120 ft
Peavine Ridge 0 in 3500 ft
Red Hill 0 in 4400 ft

Earthquake Activity

City Distance Mag. Time & Date
No recent earthquake activity has been reported nearby.
Minimum magnitude displayed is 2.5.

Coastal Water Temperatures

Place Temperature
Astoria, OR 61.0 °F
Westport, WA 60.1 °F

Nearby Weather Stations